sensor_id;sensor_type;location;lat;lon;timestamp;pressure;altitude;pressure_sealevel;temperature
11321;BMP180;5715;48.234;14.320;2023-05-15T00:00:15;97879.00;;;19.20
11321;BMP180;5715;48.234;14.320;2023-05-15T00:03:03;97886.00;;;19.10
11321;BMP180;5715;48.234;14.320;2023-05-15T00:05:51;97885.00;;;19.20
11321;BMP180;5715;48.234;14.320;2023-05-15T00:08:39;97886.00;;;19.20
11321;BMP180;5715;48.234;14.320;2023-05-15T00:11:27;97880.00;;;19.20
11321;BMP180;5715;48.234;14.320;2023-05-15T00:14:14;97880.00;;;19.20
11321;BMP180;5715;48.234;14.320;2023-05-15T00:17:02;97884.00;;;19.30
11321;BMP180;5715;48.234;14.320;2023-05-15T00:19:49;97883.00;;;19.30
11321;BMP180;5715;48.234;14.320;2023-05-15T00:22:37;97877.00;;;19.30
11321;BMP180;5715;48.234;14.320;2023-05-15T00:25:25;97873.00;;;19.40
11321;BMP180;5715;48.234;14.320;2023-05-15T00:28:13;97866.00;;;19.40
11321;BMP180;5715;48.234;14.320;2023-05-15T00:31:00;97873.00;;;19.50
11321;BMP180;5715;48.234;14.320;2023-05-15T00:33:48;97878.00;;;19.40
11321;BMP180;5715;48.234;14.320;2023-05-15T00:36:36;97875.00;;;19.50
11321;BMP180;5715;48.234;14.320;2023-05-15T00:39:23;97876.00;;;19.60
11321;BMP180;5715;48.234;14.320;2023-05-15T00:42:11;97871.00;;;19.30
11321;BMP180;5715;48.234;14.320;2023-05-15T00:45:01;97866.00;;;19.20
11321;BMP180;5715;48.234;14.320;2023-05-15T00:47:50;97864.00;;;19.30
11321;BMP180;5715;48.234;14.320;2023-05-15T00:50:39;97862.00;;;19.20
11321;BMP180;5715;48.234;14.320;2023-05-15T00:53:30;97865.00;;;19.20
11321;BMP180;5715;48.234;14.320;2023-05-15T00:56:18;97868.00;;;19.20
11321;BMP180;5715;48.234;14.320;2023-05-15T00:59:09;97870.00;;;19.10
11321;BMP180;5715;48.234;14.320;2023-05-15T01:01:57;97865.00;;;19.10
11321;BMP180;5715;48.234;14.320;2023-05-15T01:04:45;97862.00;;;19.20
11321;BMP180;5715;48.234;14.320;2023-05-15T01:07:40;97867.00;;;19.10
11321;BMP180;5715;48.234;14.320;2023-05-15T01:10:33;97861.00;;;19.00
11321;BMP180;5715;48.234;14.320;2023-05-15T01:13:22;97869.00;;;19.10
11321;BMP180;5715;48.234;14.320;2023-05-15T01:16:10;97866.00;;;19.20
11321;BMP180;5715;48.234;14.320;2023-05-15T01:18:58;97870.00;;;19.10
11321;BMP180;5715;48.234;14.320;2023-05-15T01:26:00;97866.00;;;19.10
11321;BMP180;5715;48.234;14.320;2023-05-15T01:32:23;97862.00;;;18.90
11321;BMP180;5715;48.234;14.320;2023-05-15T01:35:41;97856.00;;;19.00
11321;BMP180;5715;48.234;14.320;2023-05-15T01:38:56;97854.00;;;18.90
11321;BMP180;5715;48.234;14.320;2023-05-15T01:41:48;97852.00;;;19.00
11321;BMP180;5715;48.234;14.320;2023-05-15T01:44:53;97855.00;;;18.90
11321;BMP180;5715;48.234;14.320;2023-05-15T01:47:45;97856.00;;;18.90
11321;BMP180;5715;48.234;14.320;2023-05-15T01:50:37;97851.00;;;18.90
11321;BMP180;5715;48.234;14.320;2023-05-15T01:53:26;97848.00;;;18.70
11321;BMP180;5715;48.234;14.320;2023-05-15T01:56:17;97850.00;;;18.80
11321;BMP180;5715;48.234;14.320;2023-05-15T01:59:07;97859.00;;;18.60
11321;BMP180;5715;48.234;14.320;2023-05-15T02:01:57;97849.00;;;18.90
11321;BMP180;5715;48.234;14.320;2023-05-15T02:04:47;97852.00;;;18.90
11321;BMP180;5715;48.234;14.320;2023-05-15T02:07:36;97849.00;;;18.80
11321;BMP180;5715;48.234;14.320;2023-05-15T02:10:25;97848.00;;;18.40
11321;BMP180;5715;48.234;14.320;2023-05-15T02:13:14;97835.00;;;18.80
11321;BMP180;5715;48.234;14.320;2023-05-15T02:16:03;97848.00;;;18.80
11321;BMP180;5715;48.234;14.320;2023-05-15T02:18:51;97848.00;;;18.90
11321;BMP180;5715;48.234;14.320;2023-05-15T02:21:39;97846.00;;;18.80
11321;BMP180;5715;48.234;14.320;2023-05-15T02:24:26;97853.00;;;18.80
11321;BMP180;5715;48.234;14.320;2023-05-15T02:27:24;97844.00;;;18.70
11321;BMP180;5715;48.234;14.320;2023-05-15T02:31:18;97848.00;;;18.70
11321;BMP180;5715;48.234;14.320;2023-05-15T02:34:14;97845.00;;;18.80
11321;BMP180;5715;48.234;14.320;2023-05-15T02:37:10;97849.00;;;18.70
11321;BMP180;5715;48.234;14.320;2023-05-15T02:40:00;97842.00;;;18.60
11321;BMP180;5715;48.234;14.320;2023-05-15T02:42:54;97839.00;;;18.70
11321;BMP180;5715;48.234;14.320;2023-05-15T02:45:44;97838.00;;;18.70
11321;BMP180;5715;48.234;14.320;2023-05-15T02:48:34;97836.00;;;18.80
11321;BMP180;5715;48.234;14.320;2023-05-15T02:51:24;97841.00;;;18.70
11321;BMP180;5715;48.234;14.320;2023-05-15T02:54:12;97843.00;;;18.70
11321;BMP180;5715;48.234;14.320;2023-05-15T02:57:00;97838.00;;;18.70
11321;BMP180;5715;48.234;14.320;2023-05-15T02:59:47;97844.00;;;18.70
11321;BMP180;5715;48.234;14.320;2023-05-15T03:02:35;97837.00;;;18.80
11321;BMP180;5715;48.234;14.320;2023-05-15T03:05:23;97836.00;;;18.80
11321;BMP180;5715;48.234;14.320;2023-05-15T03:08:10;97842.00;;;18.70
11321;BMP180;5715;48.234;14.320;2023-05-15T03:10:58;97841.00;;;18.70
11321;BMP180;5715;48.234;14.320;2023-05-15T03:13:45;97843.00;;;18.60
11321;BMP180;5715;48.234;14.320;2023-05-15T03:16:33;97844.00;;;18.70
11321;BMP180;5715;48.234;14.320;2023-05-15T03:19:23;97842.00;;;18.80
11321;BMP180;5715;48.234;14.320;2023-05-15T03:22:10;97840.00;;;18.70
11321;BMP180;5715;48.234;14.320;2023-05-15T03:24:59;97844.00;;;18.80
11321;BMP180;5715;48.234;14.320;2023-05-15T03:27:48;97836.00;;;18.70
11321;BMP180;5715;48.234;14.320;2023-05-15T03:30:35;97844.00;;;18.70
11321;BMP180;5715;48.234;14.320;2023-05-15T03:33:23;97840.00;;;18.70
11321;BMP180;5715;48.234;14.320;2023-05-15T03:36:11;97842.00;;;18.70
11321;BMP180;5715;48.234;14.320;2023-05-15T03:38:58;97842.00;;;18.70
11321;BMP180;5715;48.234;14.320;2023-05-15T03:41:46;97844.00;;;18.60
11321;BMP180;5715;48.234;14.320;2023-05-15T03:44:33;97839.00;;;18.80
11321;BMP180;5715;48.234;14.320;2023-05-15T03:47:21;97845.00;;;18.80
11321;BMP180;5715;48.234;14.320;2023-05-15T03:50:09;97834.00;;;18.80
11321;BMP180;5715;48.234;14.320;2023-05-15T03:52:57;97845.00;;;18.80
11321;BMP180;5715;48.234;14.320;2023-05-15T03:55:45;97836.00;;;18.80
11321;BMP180;5715;48.234;14.320;2023-05-15T03:58:32;97848.00;;;18.70
11321;BMP180;5715;48.234;14.320;2023-05-15T04:01:20;97844.00;;;18.90
11321;BMP180;5715;48.234;14.320;2023-05-15T04:04:07;97848.00;;;18.80
11321;BMP180;5715;48.234;14.320;2023-05-15T04:06:55;97844.00;;;18.90
11321;BMP180;5715;48.234;14.320;2023-05-15T04:09:43;97848.00;;;19.10
11321;BMP180;5715;48.234;14.320;2023-05-15T04:12:32;97850.00;;;18.80
11321;BMP180;5715;48.234;14.320;2023-05-15T04:15:24;97849.00;;;19.00
11321;BMP180;5715;48.234;14.320;2023-05-15T04:18:15;97847.00;;;19.10
11321;BMP180;5715;48.234;14.320;2023-05-15T04:21:02;97850.00;;;19.20
11321;BMP180;5715;48.234;14.320;2023-05-15T04:23:50;97849.00;;;19.20
11321;BMP180;5715;48.234;14.320;2023-05-15T04:26:37;97858.00;;;19.20
11321;BMP180;5715;48.234;14.320;2023-05-15T04:29:25;97862.00;;;19.10
11321;BMP180;5715;48.234;14.320;2023-05-15T04:32:12;97857.00;;;19.10
11321;BMP180;5715;48.234;14.320;2023-05-15T04:35:01;97862.00;;;19.30
11321;BMP180;5715;48.234;14.320;2023-05-15T04:37:49;97852.00;;;19.30
11321;BMP180;5715;48.234;14.320;2023-05-15T04:40:37;97850.00;;;19.40
11321;BMP180;5715;48.234;14.320;2023-05-15T04:43:24;97854.00;;;19.20
11321;BMP180;5715;48.234;14.320;2023-05-15T04:46:12;97864.00;;;19.20
11321;BMP180;5715;48.234;14.320;2023-05-15T04:49:00;97861.00;;;19.30
11321;BMP180;5715;48.234;14.320;2023-05-15T04:51:47;97860.00;;;19.30
11321;BMP180;5715;48.234;14.320;2023-05-15T04:54:35;97863.00;;;19.30
11321;BMP180;5715;48.234;14.320;2023-05-15T04:57:22;97866.00;;;19.40
11321;BMP180;5715;48.234;14.320;2023-05-15T05:00:11;97867.00;;;19.50
11321;BMP180;5715;48.234;14.320;2023-05-15T05:02:59;97872.00;;;19.40
11321;BMP180;5715;48.234;14.320;2023-05-15T05:05:46;97864.00;;;19.50
11321;BMP180;5715;48.234;14.320;2023-05-15T05:08:34;97869.00;;;19.60
11321;BMP180;5715;48.234;14.320;2023-05-15T05:11:22;97866.00;;;19.70
11321;BMP180;5715;48.234;14.320;2023-05-15T05:14:13;97870.00;;;20.00
11321;BMP180;5715;48.234;14.320;2023-05-15T05:17:02;97867.00;;;20.10
11321;BMP180;5715;48.234;14.320;2023-05-15T05:19:50;97868.00;;;20.10
11321;BMP180;5715;48.234;14.320;2023-05-15T05:22:37;97873.00;;;20.00
11321;BMP180;5715;48.234;14.320;2023-05-15T05:25:26;97876.00;;;20.00
11321;BMP180;5715;48.234;14.320;2023-05-15T05:28:14;97869.00;;;20.20
11321;BMP180;5715;48.234;14.320;2023-05-15T05:31:01;97873.00;;;20.10
11321;BMP180;5715;48.234;14.320;2023-05-15T05:33:49;97881.00;;;20.30
11321;BMP180;5715;48.234;14.320;2023-05-15T05:36:39;97887.00;;;20.60
11321;BMP180;5715;48.234;14.320;2023-05-15T05:39:26;97882.00;;;20.40
11321;BMP180;5715;48.234;14.320;2023-05-15T05:42:14;97880.00;;;20.60
11321;BMP180;5715;48.234;14.320;2023-05-15T05:45:01;97884.00;;;20.10
11321;BMP180;5715;48.234;14.320;2023-05-15T05:47:49;97889.00;;;20.40
11321;BMP180;5715;48.234;14.320;2023-05-15T05:50:36;97891.00;;;20.00
11321;BMP180;5715;48.234;14.320;2023-05-15T05:53:24;97892.00;;;20.30
11321;BMP180;5715;48.234;14.320;2023-05-15T05:56:12;97889.00;;;20.40
11321;BMP180;5715;48.234;14.320;2023-05-15T05:58:59;97890.00;;;20.70
11321;BMP180;5715;48.234;14.320;2023-05-15T06:01:48;97892.00;;;20.40
11321;BMP180;5715;48.234;14.320;2023-05-15T06:04:37;97884.00;;;20.50
11321;BMP180;5715;48.234;14.320;2023-05-15T06:07:25;97896.00;;;20.50
11321;BMP180;5715;48.234;14.320;2023-05-15T06:10:13;97894.00;;;20.90
11321;BMP180;5715;48.234;14.320;2023-05-15T06:13:00;97895.00;;;20.80
11321;BMP180;5715;48.234;14.320;2023-05-15T06:15:48;97902.00;;;21.10
11321;BMP180;5715;48.234;14.320;2023-05-15T06:18:35;97901.00;;;21.20
11321;BMP180;5715;48.234;14.320;2023-05-15T06:21:23;97899.00;;;21.00
11321;BMP180;5715;48.234;14.320;2023-05-15T06:24:11;97905.00;;;21.40
11321;BMP180;5715;48.234;14.320;2023-05-15T06:26:58;97907.00;;;21.30
11321;BMP180;5715;48.234;14.320;2023-05-15T06:29:46;97907.00;;;21.50
11321;BMP180;5715;48.234;14.320;2023-05-15T06:32:34;97905.00;;;21.10
11321;BMP180;5715;48.234;14.320;2023-05-15T06:35:22;97908.00;;;21.30
11321;BMP180;5715;48.234;14.320;2023-05-15T06:38:12;97912.00;;;20.90
11321;BMP180;5715;48.234;14.320;2023-05-15T06:41:00;97912.00;;;21.10
11321;BMP180;5715;48.234;14.320;2023-05-15T06:43:47;97911.00;;;21.20
11321;BMP180;5715;48.234;14.320;2023-05-15T06:46:35;97921.00;;;21.40
11321;BMP180;5715;48.234;14.320;2023-05-15T06:49:24;97911.00;;;21.30
11321;BMP180;5715;48.234;14.320;2023-05-15T06:52:12;97915.00;;;21.10
11321;BMP180;5715;48.234;14.320;2023-05-15T06:54:59;97919.00;;;21.40
11321;BMP180;5715;48.234;14.320;2023-05-15T06:57:47;97921.00;;;21.50
11321;BMP180;5715;48.234;14.320;2023-05-15T07:00:34;97915.00;;;21.50
11321;BMP180;5715;48.234;14.320;2023-05-15T07:03:22;97916.00;;;21.40
11321;BMP180;5715;48.234;14.320;2023-05-15T07:06:10;97915.00;;;21.20
11321;BMP180;5715;48.234;14.320;2023-05-15T07:08:58;97918.00;;;21.20
11321;BMP180;5715;48.234;14.320;2023-05-15T07:11:46;97915.00;;;21.40
11321;BMP180;5715;48.234;14.320;2023-05-15T07:14:33;97918.00;;;21.70
11321;BMP180;5715;48.234;14.320;2023-05-15T07:17:21;97914.00;;;21.80
11321;BMP180;5715;48.234;14.320;2023-05-15T07:20:09;97917.00;;;21.60
11321;BMP180;5715;48.234;14.320;2023-05-15T07:22:57;97925.00;;;21.90
11321;BMP180;5715;48.234;14.320;2023-05-15T07:25:45;97925.00;;;21.70
11321;BMP180;5715;48.234;14.320;2023-05-15T07:28:32;97923.00;;;22.00
11321;BMP180;5715;48.234;14.320;2023-05-15T07:31:20;97925.00;;;21.70
11321;BMP180;5715;48.234;14.320;2023-05-15T07:34:08;97915.00;;;22.40
11321;BMP180;5715;48.234;14.320;2023-05-15T07:36:55;97923.00;;;21.90
11321;BMP180;5715;48.234;14.320;2023-05-15T07:39:43;97915.00;;;21.70
11321;BMP180;5715;48.234;14.320;2023-05-15T07:42:30;97917.00;;;22.20
11321;BMP180;5715;48.234;14.320;2023-05-15T07:45:18;97916.00;;;22.00
11321;BMP180;5715;48.234;14.320;2023-05-15T07:48:19;97922.00;;;22.30
11321;BMP180;5715;48.234;14.320;2023-05-15T07:51:06;97924.00;;;22.60
11321;BMP180;5715;48.234;14.320;2023-05-15T07:53:54;97917.00;;;22.50
11321;BMP180;5715;48.234;14.320;2023-05-15T07:56:42;97921.00;;;22.70
11321;BMP180;5715;48.234;14.320;2023-05-15T07:59:30;97926.00;;;21.90
11321;BMP180;5715;48.234;14.320;2023-05-15T08:02:17;97926.00;;;22.80
11321;BMP180;5715;48.234;14.320;2023-05-15T08:05:05;97929.00;;;23.00
11321;BMP180;5715;48.234;14.320;2023-05-15T08:07:53;97928.00;;;23.40
11321;BMP180;5715;48.234;14.320;2023-05-15T08:10:41;97933.00;;;23.20
11321;BMP180;5715;48.234;14.320;2023-05-15T08:13:28;97934.00;;;23.10
11321;BMP180;5715;48.234;14.320;2023-05-15T08:16:16;97932.00;;;23.60
11321;BMP180;5715;48.234;14.320;2023-05-15T08:19:03;97928.00;;;23.40
11321;BMP180;5715;48.234;14.320;2023-05-15T08:21:53;97928.00;;;23.10
11321;BMP180;5715;48.234;14.320;2023-05-15T08:24:42;97921.00;;;23.00
11321;BMP180;5715;48.234;14.320;2023-05-15T08:27:29;97920.00;;;23.50
11321;BMP180;5715;48.234;14.320;2023-05-15T08:30:17;97922.00;;;24.20
11321;BMP180;5715;48.234;14.320;2023-05-15T08:33:04;97922.00;;;24.10
11321;BMP180;5715;48.234;14.320;2023-05-15T08:35:52;97925.00;;;24.10
11321;BMP180;5715;48.234;14.320;2023-05-15T08:38:40;97931.00;;;23.90
11321;BMP180;5715;48.234;14.320;2023-05-15T08:41:33;97940.00;;;23.80
11321;BMP180;5715;48.234;14.320;2023-05-15T08:44:27;97938.00;;;23.20
11321;BMP180;5715;48.234;14.320;2023-05-15T08:47:15;97954.00;;;23.10
11321;BMP180;5715;48.234;14.320;2023-05-15T08:50:10;97955.00;;;22.80
11321;BMP180;5715;48.234;14.320;2023-05-15T08:53:00;97964.00;;;22.70
11321;BMP180;5715;48.234;14.320;2023-05-15T08:55:49;97970.00;;;22.30
11321;BMP180;5715;48.234;14.320;2023-05-15T08:58:37;97974.00;;;22.40
11321;BMP180;5715;48.234;14.320;2023-05-15T09:01:27;97975.00;;;22.00
11321;BMP180;5715;48.234;14.320;2023-05-15T09:04:15;97973.00;;;21.80
11321;BMP180;5715;48.234;14.320;2023-05-15T09:07:04;97986.00;;;22.20
11321;BMP180;5715;48.234;14.320;2023-05-15T09:09:53;97986.00;;;22.00
11321;BMP180;5715;48.234;14.320;2023-05-15T09:12:43;97987.00;;;21.80
11321;BMP180;5715;48.234;14.320;2023-05-15T09:15:32;97982.00;;;22.30
11321;BMP180;5715;48.234;14.320;2023-05-15T09:18:20;97985.00;;;22.30
11321;BMP180;5715;48.234;14.320;2023-05-15T09:21:27;97980.00;;;21.80
11321;BMP180;5715;48.234;14.320;2023-05-15T09:24:37;97989.00;;;22.10
11321;BMP180;5715;48.234;14.320;2023-05-15T09:27:25;97993.00;;;22.20
11321;BMP180;5715;48.234;14.320;2023-05-15T09:30:16;97991.00;;;23.00
11321;BMP180;5715;48.234;14.320;2023-05-15T09:33:05;97988.00;;;23.30
11321;BMP180;5715;48.234;14.320;2023-05-15T09:35:52;97989.00;;;23.40
11321;BMP180;5715;48.234;14.320;2023-05-15T09:38:42;97977.00;;;24.00
11321;BMP180;5715;48.234;14.320;2023-05-15T09:41:30;97978.00;;;24.60
11321;BMP180;5715;48.234;14.320;2023-05-15T09:44:23;97975.00;;;25.10
11321;BMP180;5715;48.234;14.320;2023-05-15T09:47:15;97976.00;;;23.90
11321;BMP180;5715;48.234;14.320;2023-05-15T09:50:04;97974.00;;;24.30
11321;BMP180;5715;48.234;14.320;2023-05-15T09:52:52;97971.00;;;23.60
11321;BMP180;5715;48.234;14.320;2023-05-15T09:55:41;97986.00;;;24.20
11321;BMP180;5715;48.234;14.320;2023-05-15T09:58:34;97979.00;;;23.70
11321;BMP180;5715;48.234;14.320;2023-05-15T10:01:23;97986.00;;;23.50
11321;BMP180;5715;48.234;14.320;2023-05-15T10:04:13;97991.00;;;23.00
11321;BMP180;5715;48.234;14.320;2023-05-15T10:07:00;97991.00;;;22.80
11321;BMP180;5715;48.234;14.320;2023-05-15T10:09:48;97987.00;;;23.00
11321;BMP180;5715;48.234;14.320;2023-05-15T10:12:35;97981.00;;;23.30
11321;BMP180;5715;48.234;14.320;2023-05-15T10:15:24;97980.00;;;24.10
11321;BMP180;5715;48.234;14.320;2023-05-15T10:18:13;97979.00;;;24.40
11321;BMP180;5715;48.234;14.320;2023-05-15T10:21:04;97967.00;;;24.50
11321;BMP180;5715;48.234;14.320;2023-05-15T10:23:53;97970.00;;;24.80
11321;BMP180;5715;48.234;14.320;2023-05-15T10:26:43;97964.00;;;24.30
11321;BMP180;5715;48.234;14.320;2023-05-15T10:29:31;97963.00;;;24.70
11321;BMP180;5715;48.234;14.320;2023-05-15T10:32:21;97961.00;;;25.10
11321;BMP180;5715;48.234;14.320;2023-05-15T10:35:10;97960.00;;;25.40
11321;BMP180;5715;48.234;14.320;2023-05-15T10:37:59;97963.00;;;25.20
11321;BMP180;5715;48.234;14.320;2023-05-15T10:40:51;97956.00;;;24.90
11321;BMP180;5715;48.234;14.320;2023-05-15T10:43:53;97956.00;;;24.60
11321;BMP180;5715;48.234;14.320;2023-05-15T10:46:42;97947.00;;;24.50
11321;BMP180;5715;48.234;14.320;2023-05-15T10:49:30;97952.00;;;24.70
11321;BMP180;5715;48.234;14.320;2023-05-15T10:52:19;97948.00;;;24.60
11321;BMP180;5715;48.234;14.320;2023-05-15T10:55:17;97944.00;;;24.30
11321;BMP180;5715;48.234;14.320;2023-05-15T10:58:08;97947.00;;;24.20
11321;BMP180;5715;48.234;14.320;2023-05-15T11:00:56;97940.00;;;24.40
11321;BMP180;5715;48.234;14.320;2023-05-15T11:03:44;97941.00;;;24.00
11321;BMP180;5715;48.234;14.320;2023-05-15T11:06:48;97935.00;;;23.60
11321;BMP180;5715;48.234;14.320;2023-05-15T11:09:37;97934.00;;;23.50
11321;BMP180;5715;48.234;14.320;2023-05-15T11:12:54;97933.00;;;24.20
11321;BMP180;5715;48.234;14.320;2023-05-15T11:15:44;97925.00;;;24.50
11321;BMP180;5715;48.234;14.320;2023-05-15T11:18:36;97925.00;;;24.70
11321;BMP180;5715;48.234;14.320;2023-05-15T11:21:24;97930.00;;;24.70
11321;BMP180;5715;48.234;14.320;2023-05-15T11:24:11;97936.00;;;24.70
11321;BMP180;5715;48.234;14.320;2023-05-15T11:27:03;97935.00;;;25.10
11321;BMP180;5715;48.234;14.320;2023-05-15T11:30:17;97946.00;;;25.20
11321;BMP180;5715;48.234;14.320;2023-05-15T11:33:12;97943.00;;;24.70
11321;BMP180;5715;48.234;14.320;2023-05-15T11:36:03;97942.00;;;25.30
11321;BMP180;5715;48.234;14.320;2023-05-15T11:38:51;97946.00;;;25.50
11321;BMP180;5715;48.234;14.320;2023-05-15T11:41:39;97947.00;;;25.10
11321;BMP180;5715;48.234;14.320;2023-05-15T11:44:28;97945.00;;;25.40
11321;BMP180;5715;48.234;14.320;2023-05-15T11:47:15;97943.00;;;25.10
11321;BMP180;5715;48.234;14.320;2023-05-15T11:50:04;97953.00;;;25.70
11321;BMP180;5715;48.234;14.320;2023-05-15T11:52:53;97949.00;;;25.30
11321;BMP180;5715;48.234;14.320;2023-05-15T11:55:44;97951.00;;;24.90
11321;BMP180;5715;48.234;14.320;2023-05-15T11:58:32;97954.00;;;24.70
11321;BMP180;5715;48.234;14.320;2023-05-15T12:01:19;97944.00;;;24.90
11321;BMP180;5715;48.234;14.320;2023-05-15T12:04:15;97942.00;;;25.00
11321;BMP180;5715;48.234;14.320;2023-05-15T12:07:07;97943.00;;;25.00
11321;BMP180;5715;48.234;14.320;2023-05-15T12:09:55;97945.00;;;25.60
11321;BMP180;5715;48.234;14.320;2023-05-15T12:12:44;97935.00;;;25.30
11321;BMP180;5715;48.234;14.320;2023-05-15T12:15:41;97933.00;;;25.40
11321;BMP180;5715;48.234;14.320;2023-05-15T12:18:32;97944.00;;;25.40
11321;BMP180;5715;48.234;14.320;2023-05-15T12:21:20;97944.00;;;25.30
11321;BMP180;5715;48.234;14.320;2023-05-15T12:24:10;97939.00;;;24.90
11321;BMP180;5715;48.234;14.320;2023-05-15T12:26:59;97951.00;;;25.00
11321;BMP180;5715;48.234;14.320;2023-05-15T12:29:47;97949.00;;;25.60
11321;BMP180;5715;48.234;14.320;2023-05-15T12:32:36;97948.00;;;25.90
11321;BMP180;5715;48.234;14.320;2023-05-15T12:35:25;97948.00;;;25.90
11321;BMP180;5715;48.234;14.320;2023-05-15T12:38:14;97950.00;;;25.90
11321;BMP180;5715;48.234;14.320;2023-05-15T12:41:02;97959.00;;;26.60
11321;BMP180;5715;48.234;14.320;2023-05-15T12:43:50;97945.00;;;25.90
11321;BMP180;5715;48.234;14.320;2023-05-15T12:46:39;97950.00;;;26.20
11321;BMP180;5715;48.234;14.320;2023-05-15T12:49:27;97940.00;;;26.20
11321;BMP180;5715;48.234;14.320;2023-05-15T12:52:15;97944.00;;;26.90
11321;BMP180;5715;48.234;14.320;2023-05-15T12:55:03;97948.00;;;26.90
11321;BMP180;5715;48.234;14.320;2023-05-15T12:57:52;97936.00;;;27.00
11321;BMP180;5715;48.234;14.320;2023-05-15T13:00:42;97938.00;;;27.10
11321;BMP180;5715;48.234;14.320;2023-05-15T13:03:33;97930.00;;;26.80
11321;BMP180;5715;48.234;14.320;2023-05-15T13:06:22;97936.00;;;26.50
11321;BMP180;5715;48.234;14.320;2023-05-15T13:09:10;97921.00;;;26.10
11321;BMP180;5715;48.234;14.320;2023-05-15T13:12:00;97920.00;;;26.20
11321;BMP180;5715;48.234;14.320;2023-05-15T13:14:49;97916.00;;;26.20
11321;BMP180;5715;48.234;14.320;2023-05-15T13:17:38;97923.00;;;26.30
11321;BMP180;5715;48.234;14.320;2023-05-15T13:20:28;97929.00;;;26.70
11321;BMP180;5715;48.234;14.320;2023-05-15T13:23:20;97921.00;;;26.10
11321;BMP180;5715;48.234;14.320;2023-05-15T13:26:11;97922.00;;;26.20
11321;BMP180;5715;48.234;14.320;2023-05-15T13:28:58;97926.00;;;26.40
11321;BMP180;5715;48.234;14.320;2023-05-15T13:31:50;97926.00;;;26.40
11321;BMP180;5715;48.234;14.320;2023-05-15T13:34:38;97923.00;;;26.60
11321;BMP180;5715;48.234;14.320;2023-05-15T13:37:25;97921.00;;;26.90
11321;BMP180;5715;48.234;14.320;2023-05-15T13:40:13;97932.00;;;26.70
11321;BMP180;5715;48.234;14.320;2023-05-15T13:43:01;97931.00;;;26.40
11321;BMP180;5715;48.234;14.320;2023-05-15T13:45:49;97922.00;;;26.30
11321;BMP180;5715;48.234;14.320;2023-05-15T13:48:36;97931.00;;;26.10
11321;BMP180;5715;48.234;14.320;2023-05-15T13:51:24;97928.00;;;26.10
11321;BMP180;5715;48.234;14.320;2023-05-15T13:54:12;97922.00;;;26.00
11321;BMP180;5715;48.234;14.320;2023-05-15T13:56:59;97918.00;;;25.80
11321;BMP180;5715;48.234;14.320;2023-05-15T13:59:48;97922.00;;;25.90
11321;BMP180;5715;48.234;14.320;2023-05-15T14:02:35;97914.00;;;26.20
11321;BMP180;5715;48.234;14.320;2023-05-15T14:05:23;97915.00;;;26.10
11321;BMP180;5715;48.234;14.320;2023-05-15T14:08:11;97917.00;;;26.20
11321;BMP180;5715;48.234;14.320;2023-05-15T14:10:58;97919.00;;;26.60
11321;BMP180;5715;48.234;14.320;2023-05-15T14:13:46;97912.00;;;26.40
11321;BMP180;5715;48.234;14.320;2023-05-15T14:16:33;97897.00;;;27.00
11321;BMP180;5715;48.234;14.320;2023-05-15T14:19:21;97897.00;;;27.20
11321;BMP180;5715;48.234;14.320;2023-05-15T14:22:09;97880.00;;;27.00
11321;BMP180;5715;48.234;14.320;2023-05-15T14:24:57;97885.00;;;27.80
11321;BMP180;5715;48.234;14.320;2023-05-15T14:27:45;97889.00;;;28.40
11321;BMP180;5715;48.234;14.320;2023-05-15T14:30:33;97886.00;;;28.50
11321;BMP180;5715;48.234;14.320;2023-05-15T14:33:21;97901.00;;;28.40
11321;BMP180;5715;48.234;14.320;2023-05-15T14:36:09;97901.00;;;28.60
11321;BMP180;5715;48.234;14.320;2023-05-15T14:38:56;97892.00;;;28.50
11321;BMP180;5715;48.234;14.320;2023-05-15T14:41:46;97903.00;;;28.40
11321;BMP180;5715;48.234;14.320;2023-05-15T14:44:35;97891.00;;;28.30
11321;BMP180;5715;48.234;14.320;2023-05-15T14:47:22;97888.00;;;28.10
11321;BMP180;5715;48.234;14.320;2023-05-15T14:50:11;97895.00;;;28.20
11321;BMP180;5715;48.234;14.320;2023-05-15T14:52:59;97887.00;;;27.30
11321;BMP180;5715;48.234;14.320;2023-05-15T14:55:47;97889.00;;;26.90
11321;BMP180;5715;48.234;14.320;2023-05-15T14:58:34;97881.00;;;26.80
11321;BMP180;5715;48.234;14.320;2023-05-15T15:01:22;97885.00;;;26.70
11321;BMP180;5715;48.234;14.320;2023-05-15T15:04:10;97891.00;;;27.20
11321;BMP180;5715;48.234;14.320;2023-05-15T15:06:58;97889.00;;;26.50
11321;BMP180;5715;48.234;14.320;2023-05-15T15:09:45;97894.00;;;26.70
11321;BMP180;5715;48.234;14.320;2023-05-15T15:12:34;97892.00;;;26.90
11321;BMP180;5715;48.234;14.320;2023-05-15T15:15:23;97897.00;;;27.00
11321;BMP180;5715;48.234;14.320;2023-05-15T15:18:11;97901.00;;;26.70
11321;BMP180;5715;48.234;14.320;2023-05-15T15:20:58;97899.00;;;26.10
11321;BMP180;5715;48.234;14.320;2023-05-15T15:23:46;97905.00;;;26.00
11321;BMP180;5715;48.234;14.320;2023-05-15T15:26:34;97906.00;;;25.90
11321;BMP180;5715;48.234;14.320;2023-05-15T15:29:22;97902.00;;;25.70
11321;BMP180;5715;48.234;14.320;2023-05-15T15:32:09;97904.00;;;26.00
11321;BMP180;5715;48.234;14.320;2023-05-15T15:34:57;97898.00;;;26.20
11321;BMP180;5715;48.234;14.320;2023-05-15T15:37:45;97897.00;;;26.10
11321;BMP180;5715;48.234;14.320;2023-05-15T15:40:34;97890.00;;;25.60
11321;BMP180;5715;48.234;14.320;2023-05-15T15:43:21;97886.00;;;25.80
11321;BMP180;5715;48.234;14.320;2023-05-15T15:46:09;97881.00;;;25.80
11321;BMP180;5715;48.234;14.320;2023-05-15T15:48:57;97882.00;;;25.80
11321;BMP180;5715;48.234;14.320;2023-05-15T15:51:44;97885.00;;;26.10
11321;BMP180;5715;48.234;14.320;2023-05-15T15:54:32;97892.00;;;26.00
11321;BMP180;5715;48.234;14.320;2023-05-15T15:57:20;97898.00;;;26.10
11321;BMP180;5715;48.234;14.320;2023-05-15T16:00:08;97898.00;;;25.90
11321;BMP180;5715;48.234;14.320;2023-05-15T16:02:56;97899.00;;;26.00
11321;BMP180;5715;48.234;14.320;2023-05-15T16:05:44;97897.00;;;26.10
11321;BMP180;5715;48.234;14.320;2023-05-15T16:08:31;97906.00;;;26.10
11321;BMP180;5715;48.234;14.320;2023-05-15T16:11:19;97902.00;;;25.90
11321;BMP180;5715;48.234;14.320;2023-05-15T16:14:07;97908.00;;;25.80
11321;BMP180;5715;48.234;14.320;2023-05-15T16:16:55;97899.00;;;25.80
11321;BMP180;5715;48.234;14.320;2023-05-15T16:19:42;97900.00;;;25.50
11321;BMP180;5715;48.234;14.320;2023-05-15T16:22:30;97902.00;;;24.70